sensor_id;sensor_type;location;lat;lon;timestamp;temperature;humidity
69634;DHT22;56860;51.144;16.954;2023-12-22T00:00:55;3.9;43.0
69634;DHT22;56860;51.144;16.954;2023-12-22T00:01:55;4.0;43.4
69634;DHT22;56860;51.144;16.954;2023-12-22T00:02:55;4.0;43.6
69634;DHT22;56860;51.144;16.954;2023-12-22T00:03:55;4.0;43.0
69634;DHT22;56860;51.144;16.954;2023-12-22T00:04:55;4.0;42.9
69634;DHT22;56860;51.144;16.954;2023-12-22T00:05:55;4.0;43.0
69634;DHT22;56860;51.144;16.954;2023-12-22T00:06:55;4.1;42.9
69634;DHT22;56860;51.144;16.954;2023-12-22T00:07:55;4.0;42.2
69634;DHT22;56860;51.144;16.954;2023-12-22T00:08:55;4.0;42.4
69634;DHT22;56860;51.144;16.954;2023-12-22T00:09:56;4.0;42.2
69634;DHT22;56860;51.144;16.954;2023-12-22T00:10:55;4.0;42.4
69634;DHT22;56860;51.144;16.954;2023-12-22T00:11:55;4.0;42.3
69634;DHT22;56860;51.144;16.954;2023-12-22T00:12:55;4.0;42.5
69634;DHT22;56860;51.144;16.954;2023-12-22T00:13:55;4.0;42.3
69634;DHT22;56860;51.144;16.954;2023-12-22T00:14:55;4.0;42.0
69634;DHT22;56860;51.144;16.954;2023-12-22T00:15:56;3.9;42.3
69634;DHT22;56860;51.144;16.954;2023-12-22T00:16:55;3.9;42.4
69634;DHT22;56860;51.144;16.954;2023-12-22T00:17:55;3.9;42.4
69634;DHT22;56860;51.144;16.954;2023-12-22T00:18:55;3.8;42.3
69634;DHT22;56860;51.144;16.954;2023-12-22T00:19:55;3.9;42.5
69634;DHT22;56860;51.144;16.954;2023-12-22T00:20:56;3.9;42.3
69634;DHT22;56860;51.144;16.954;2023-12-22T00:21:56;3.9;42.7
69634;DHT22;56860;51.144;16.954;2023-12-22T00:22:56;3.9;42.5
69634;DHT22;56860;51.144;16.954;2023-12-22T00:23:56;3.8;42.7
69634;DHT22;56860;51.144;16.954;2023-12-22T00:24:55;3.8;42.6
69634;DHT22;56860;51.144;16.954;2023-12-22T00:25:56;3.8;42.1
69634;DHT22;56860;51.144;16.954;2023-12-22T00:26:55;3.8;42.0
69634;DHT22;56860;51.144;16.954;2023-12-22T00:27:56;3.8;41.6
69634;DHT22;56860;51.144;16.954;2023-12-22T00:28:55;3.8;41.2
69634;DHT22;56860;51.144;16.954;2023-12-22T00:29:55;3.7;41.3
69634;DHT22;56860;51.144;16.954;2023-12-22T00:30:55;3.7;41.2
69634;DHT22;56860;51.144;16.954;2023-12-22T00:31:55;3.7;40.8
69634;DHT22;56860;51.144;16.954;2023-12-22T00:32:56;3.7;40.8
69634;DHT22;56860;51.144;16.954;2023-12-22T00:33:55;3.7;40.9
69634;DHT22;56860;51.144;16.954;2023-12-22T00:34:55;3.6;41.0
69634;DHT22;56860;51.144;16.954;2023-12-22T00:35:55;3.6;41.2
69634;DHT22;56860;51.144;16.954;2023-12-22T00:36:55;3.5;41.5
69634;DHT22;56860;51.144;16.954;2023-12-22T00:37:56;3.6;41.2
69634;DHT22;56860;51.144;16.954;2023-12-22T00:38:56;3.6;41.1
69634;DHT22;56860;51.144;16.954;2023-12-22T00:39:56;3.6;41.4
69634;DHT22;56860;51.144;16.954;2023-12-22T00:40:56;3.6;41.5
69634;DHT22;56860;51.144;16.954;2023-12-22T00:41:56;3.6;41.3
69634;DHT22;56860;51.144;16.954;2023-12-22T00:42:56;3.6;41.5
69634;DHT22;56860;51.144;16.954;2023-12-22T00:43:56;3.6;41.6
69634;DHT22;56860;51.144;16.954;2023-12-22T00:44:56;3.6;41.5
69634;DHT22;56860;51.144;16.954;2023-12-22T00:45:56;3.6;41.5
69634;DHT22;56860;51.144;16.954;2023-12-22T00:46:56;3.7;41.5
69634;DHT22;56860;51.144;16.954;2023-12-22T00:47:56;3.7;40.8
69634;DHT22;56860;51.144;16.954;2023-12-22T00:48:56;3.7;41.3
69634;DHT22;56860;51.144;16.954;2023-12-22T00:49:56;3.6;41.2
69634;DHT22;56860;51.144;16.954;2023-12-22T00:50:56;3.6;41.3
69634;DHT22;56860;51.144;16.954;2023-12-22T00:51:56;3.5;41.9
69634;DHT22;56860;51.144;16.954;2023-12-22T00:52:56;3.4;42.5
69634;DHT22;56860;51.144;16.954;2023-12-22T00:53:56;3.3;43.1
69634;DHT22;56860;51.144;16.954;2023-12-22T00:54:56;3.2;43.7
69634;DHT22;56860;51.144;16.954;2023-12-22T00:55:56;3.2;44.1
69634;DHT22;56860;51.144;16.954;2023-12-22T00:56:57;3.2;43.9
69634;DHT22;56860;51.144;16.954;2023-12-22T00:57:56;3.2;44.2
69634;DHT22;56860;51.144;16.954;2023-12-22T00:58:56;3.3;44.4
69634;DHT22;56860;51.144;16.954;2023-12-22T00:59:56;3.2;44.2
69634;DHT22;56860;51.144;16.954;2023-12-22T01:00:56;3.3;44.5
69634;DHT22;56860;51.144;16.954;2023-12-22T01:01:56;3.2;44.1
69634;DHT22;56860;51.144;16.954;2023-12-22T01:02:56;3.3;44.5
69634;DHT22;56860;51.144;16.954;2023-12-22T01:03:56;3.3;44.7
69634;DHT22;56860;51.144;16.954;2023-12-22T01:04:56;3.2;45.3
69634;DHT22;56860;51.144;16.954;2023-12-22T01:05:56;3.1;45.3
69634;DHT22;56860;51.144;16.954;2023-12-22T01:06:56;3.1;45.8
69634;DHT22;56860;51.144;16.954;2023-12-22T01:07:56;3.1;46.0
69634;DHT22;56860;51.144;16.954;2023-12-22T01:08:56;3.0;46.2
69634;DHT22;56860;51.144;16.954;2023-12-22T01:09:56;2.9;46.4
69634;DHT22;56860;51.144;16.954;2023-12-22T01:10:56;2.9;47.3
69634;DHT22;56860;51.144;16.954;2023-12-22T01:11:56;2.9;47.8
69634;DHT22;56860;51.144;16.954;2023-12-22T01:12:56;2.8;47.5
69634;DHT22;56860;51.144;16.954;2023-12-22T01:13:56;2.9;47.5
69634;DHT22;56860;51.144;16.954;2023-12-22T01:14:56;2.9;47.5
69634;DHT22;56860;51.144;16.954;2023-12-22T01:15:56;2.9;47.6
69634;DHT22;56860;51.144;16.954;2023-12-22T01:16:56;2.9;47.8
69634;DHT22;56860;51.144;16.954;2023-12-22T01:17:56;3.0;47.3
69634;DHT22;56860;51.144;16.954;2023-12-22T01:18:56;3.0;46.7
69634;DHT22;56860;51.144;16.954;2023-12-22T01:19:56;3.0;46.5
69634;DHT22;56860;51.144;16.954;2023-12-22T01:20:56;3.1;46.4
69634;DHT22;56860;51.144;16.954;2023-12-22T01:21:56;3.0;46.2
69634;DHT22;56860;51.144;16.954;2023-12-22T01:22:56;3.0;45.8
69634;DHT22;56860;51.144;16.954;2023-12-22T01:23:56;3.0;45.0
69634;DHT22;56860;51.144;16.954;2023-12-22T01:24:56;3.0;44.8
69634;DHT22;56860;51.144;16.954;2023-12-22T01:25:56;3.0;44.3
69634;DHT22;56860;51.144;16.954;2023-12-22T01:26:56;3.0;44.0
69634;DHT22;56860;51.144;16.954;2023-12-22T01:27:56;3.1;43.7
69634;DHT22;56860;51.144;16.954;2023-12-22T01:28:56;3.0;43.4
69634;DHT22;56860;51.144;16.954;2023-12-22T01:29:56;3.0;43.2
69634;DHT22;56860;51.144;16.954;2023-12-22T01:30:56;3.0;42.7
69634;DHT22;56860;51.144;16.954;2023-12-22T01:31:56;3.0;42.7
69634;DHT22;56860;51.144;16.954;2023-12-22T01:32:56;3.0;43.0
69634;DHT22;56860;51.144;16.954;2023-12-22T01:33:56;3.0;42.5
69634;DHT22;56860;51.144;16.954;2023-12-22T01:34:56;3.1;42.5
69634;DHT22;56860;51.144;16.954;2023-12-22T01:35:56;3.1;42.5
69634;DHT22;56860;51.144;16.954;2023-12-22T01:36:56;3.1;41.8
69634;DHT22;56860;51.144;16.954;2023-12-22T01:37:56;3.1;41.8
69634;DHT22;56860;51.144;16.954;2023-12-22T01:38:56;3.2;42.0
69634;DHT22;56860;51.144;16.954;2023-12-22T01:39:56;3.2;41.4
69634;DHT22;56860;51.144;16.954;2023-12-22T01:40:56;3.2;41.2
69634;DHT22;56860;51.144;16.954;2023-12-22T01:41:56;3.2;41.1
69634;DHT22;56860;51.144;16.954;2023-12-22T01:42:56;3.2;41.1
69634;DHT22;56860;51.144;16.954;2023-12-22T01:43:56;3.2;41.1
69634;DHT22;56860;51.144;16.954;2023-12-22T01:44:56;3.2;40.8
69634;DHT22;56860;51.144;16.954;2023-12-22T01:45:56;3.2;40.6
69634;DHT22;56860;51.144;16.954;2023-12-22T01:46:56;3.2;40.5
69634;DHT22;56860;51.144;16.954;2023-12-22T01:47:56;3.1;40.6
69634;DHT22;56860;51.144;16.954;2023-12-22T01:48:56;3.1;40.1
69634;DHT22;56860;51.144;16.954;2023-12-22T01:49:56;3.1;40.3
69634;DHT22;56860;51.144;16.954;2023-12-22T01:50:56;3.0;40.4
69634;DHT22;56860;51.144;16.954;2023-12-22T01:51:56;3.1;40.5
69634;DHT22;56860;51.144;16.954;2023-12-22T01:52:56;3.1;40.2
69634;DHT22;56860;51.144;16.954;2023-12-22T01:53:56;3.1;39.7
69634;DHT22;56860;51.144;16.954;2023-12-22T01:54:56;3.2;40.0
69634;DHT22;56860;51.144;16.954;2023-12-22T01:55:56;3.2;40.0
69634;DHT22;56860;51.144;16.954;2023-12-22T01:56:56;3.2;39.8
69634;DHT22;56860;51.144;16.954;2023-12-22T01:57:56;3.2;39.9
69634;DHT22;56860;51.144;16.954;2023-12-22T01:58:57;3.2;39.8
69634;DHT22;56860;51.144;16.954;2023-12-22T01:59:56;3.2;39.6
69634;DHT22;56860;51.144;16.954;2023-12-22T02:00:56;3.1;39.0
69634;DHT22;56860;51.144;16.954;2023-12-22T02:01:56;3.1;39.3
69634;DHT22;56860;51.144;16.954;2023-12-22T02:02:56;3.1;39.4
69634;DHT22;56860;51.144;16.954;2023-12-22T02:03:56;3.1;39.2
69634;DHT22;56860;51.144;16.954;2023-12-22T02:04:56;3.1;39.2
69634;DHT22;56860;51.144;16.954;2023-12-22T02:05:56;3.1;38.8
69634;DHT22;56860;51.144;16.954;2023-12-22T02:06:56;3.1;39.0
69634;DHT22;56860;51.144;16.954;2023-12-22T02:07:56;3.1;39.3
69634;DHT22;56860;51.144;16.954;2023-12-22T02:08:56;3.1;39.3
69634;DHT22;56860;51.144;16.954;2023-12-22T02:09:56;3.2;39.1
69634;DHT22;56860;51.144;16.954;2023-12-22T02:10:56;3.1;38.7
69634;DHT22;56860;51.144;16.954;2023-12-22T02:11:56;3.2;39.0
69634;DHT22;56860;51.144;16.954;2023-12-22T02:12:56;3.2;38.6
69634;DHT22;56860;51.144;16.954;2023-12-22T02:13:56;3.2;39.0
69634;DHT22;56860;51.144;16.954;2023-12-22T02:14:56;3.2;38.6
69634;DHT22;56860;51.144;16.954;2023-12-22T02:15:59;3.2;38.6
69634;DHT22;56860;51.144;16.954;2023-12-22T02:16:59;3.2;38.6
69634;DHT22;56860;51.144;16.954;2023-12-22T02:17:58;3.2;38.9
69634;DHT22;56860;51.144;16.954;2023-12-22T02:18:56;3.1;39.3
69634;DHT22;56860;51.144;16.954;2023-12-22T02:19:58;3.0;39.8
69634;DHT22;56860;51.144;16.954;2023-12-22T02:20:56;3.0;40.1
69634;DHT22;56860;51.144;16.954;2023-12-22T02:22:00;3.0;40.3
69634;DHT22;56860;51.144;16.954;2023-12-22T02:22:56;3.0;41.0
69634;DHT22;56860;51.144;16.954;2023-12-22T02:23:56;3.0;41.8
69634;DHT22;56860;51.144;16.954;2023-12-22T02:24:56;3.0;42.6
69634;DHT22;56860;51.144;16.954;2023-12-22T02:26:10;3.0;43.0
69634;DHT22;56860;51.144;16.954;2023-12-22T02:26:57;2.8;43.8
69634;DHT22;56860;51.144;16.954;2023-12-22T02:27:57;2.7;44.6
69634;DHT22;56860;51.144;16.954;2023-12-22T02:28:57;2.6;44.9
69634;DHT22;56860;51.144;16.954;2023-12-22T02:29:57;2.5;44.2
69634;DHT22;56860;51.144;16.954;2023-12-22T02:30:57;2.5;43.4
69634;DHT22;56860;51.144;16.954;2023-12-22T02:31:56;2.4;43.4
69634;DHT22;56860;51.144;16.954;2023-12-22T02:32:59;2.4;43.1
69634;DHT22;56860;51.144;16.954;2023-12-22T02:35:57;2.2;43.4
69634;DHT22;56860;51.144;16.954;2023-12-22T02:36:57;2.0;43.9
69634;DHT22;56860;51.144;16.954;2023-12-22T02:37:57;1.9;44.5
69634;DHT22;56860;51.144;16.954;2023-12-22T02:38:56;1.8;44.5
69634;DHT22;56860;51.144;16.954;2023-12-22T02:39:56;1.7;44.6
69634;DHT22;56860;51.144;16.954;2023-12-22T02:40:57;1.7;44.5
69634;DHT22;56860;51.144;16.954;2023-12-22T02:41:56;1.7;44.6
69634;DHT22;56860;51.144;16.954;2023-12-22T02:42:57;1.7;44.5
69634;DHT22;56860;51.144;16.954;2023-12-22T02:43:56;1.7;44.7
69634;DHT22;56860;51.144;16.954;2023-12-22T02:44:57;1.6;45.1
69634;DHT22;56860;51.144;16.954;2023-12-22T02:45:57;1.5;45.6
69634;DHT22;56860;51.144;16.954;2023-12-22T02:46:57;1.5;45.9
69634;DHT22;56860;51.144;16.954;2023-12-22T02:47:57;1.4;46.0
69634;DHT22;56860;51.144;16.954;2023-12-22T02:48:57;1.4;46.0
69634;DHT22;56860;51.144;16.954;2023-12-22T02:49:57;1.4;46.2
69634;DHT22;56860;51.144;16.954;2023-12-22T02:50:57;1.3;46.6
69634;DHT22;56860;51.144;16.954;2023-12-22T02:51:57;1.3;46.5
69634;DHT22;56860;51.144;16.954;2023-12-22T02:52:57;1.3;46.4
69634;DHT22;56860;51.144;16.954;2023-12-22T02:53:57;1.3;46.3
69634;DHT22;56860;51.144;16.954;2023-12-22T02:54:57;1.3;46.4
69634;DHT22;56860;51.144;16.954;2023-12-22T02:55:57;1.3;46.2
69634;DHT22;56860;51.144;16.954;2023-12-22T02:56:57;1.3;46.0
69634;DHT22;56860;51.144;16.954;2023-12-22T02:57:57;1.4;45.5
69634;DHT22;56860;51.144;16.954;2023-12-22T02:58:57;1.4;45.3
69634;DHT22;56860;51.144;16.954;2023-12-22T02:59:57;1.4;45.5
69634;DHT22;56860;51.144;16.954;2023-12-22T03:00:57;1.5;44.9
69634;DHT22;56860;51.144;16.954;2023-12-22T03:01:57;1.5;44.4
69634;DHT22;56860;51.144;16.954;2023-12-22T03:02:57;1.6;44.3
69634;DHT22;56860;51.144;16.954;2023-12-22T03:03:57;1.6;43.5
69634;DHT22;56860;51.144;16.954;2023-12-22T03:04:57;1.6;42.9
69634;DHT22;56860;51.144;16.954;2023-12-22T03:05:57;1.7;42.8
69634;DHT22;56860;51.144;16.954;2023-12-22T03:06:57;1.7;42.8
69634;DHT22;56860;51.144;16.954;2023-12-22T03:07:57;1.8;42.5
69634;DHT22;56860;51.144;16.954;2023-12-22T03:08:57;1.8;41.9
69634;DHT22;56860;51.144;16.954;2023-12-22T03:09:57;1.8;40.9
69634;DHT22;56860;51.144;16.954;2023-12-22T03:10:57;1.8;40.2
69634;DHT22;56860;51.144;16.954;2023-12-22T03:11:59;1.9;39.7
69634;DHT22;56860;51.144;16.954;2023-12-22T03:12:57;1.9;39.7
69634;DHT22;56860;51.144;16.954;2023-12-22T03:13:57;2.0;38.8
69634;DHT22;56860;51.144;16.954;2023-12-22T03:14:58;2.0;38.1
69634;DHT22;56860;51.144;16.954;2023-12-22T03:15:57;2.0;37.5
69634;DHT22;56860;51.144;16.954;2023-12-22T03:16:57;2.0;37.0
69634;DHT22;56860;51.144;16.954;2023-12-22T03:17:57;2.1;37.4
69634;DHT22;56860;51.144;16.954;2023-12-22T03:18:57;2.1;37.4
69634;DHT22;56860;51.144;16.954;2023-12-22T03:19:57;2.1;37.4
69634;DHT22;56860;51.144;16.954;2023-12-22T03:20:57;2.1;37.4
69634;DHT22;56860;51.144;16.954;2023-12-22T03:21:57;2.2;37.6
69634;DHT22;56860;51.144;16.954;2023-12-22T03:22:58;2.2;37.6
69634;DHT22;56860;51.144;16.954;2023-12-22T03:23:57;2.2;37.4
69634;DHT22;56860;51.144;16.954;2023-12-22T03:24:57;2.1;37.9
69634;DHT22;56860;51.144;16.954;2023-12-22T03:25:57;2.1;38.6
69634;DHT22;56860;51.144;16.954;2023-12-22T03:26:57;2.1;39.0
69634;DHT22;56860;51.144;16.954;2023-12-22T03:27:57;2.0;39.4
69634;DHT22;56860;51.144;16.954;2023-12-22T03:28:57;2.0;40.2
69634;DHT22;56860;51.144;16.954;2023-12-22T03:29:57;1.9;40.6
69634;DHT22;56860;51.144;16.954;2023-12-22T03:30:57;1.9;41.1
69634;DHT22;56860;51.144;16.954;2023-12-22T03:31:57;1.8;41.9
69634;DHT22;56860;51.144;16.954;2023-12-22T03:32:57;1.7;42.3
69634;DHT22;56860;51.144;16.954;2023-12-22T03:33:57;1.7;42.7
69634;DHT22;56860;51.144;16.954;2023-12-22T03:34:57;1.6;43.2
69634;DHT22;56860;51.144;16.954;2023-12-22T03:35:57;1.6;43.9
69634;DHT22;56860;51.144;16.954;2023-12-22T03:36:57;1.6;44.3
69634;DHT22;56860;51.144;16.954;2023-12-22T03:37:57;1.6;44.4
69634;DHT22;56860;51.144;16.954;2023-12-22T03:38:57;1.5;44.3
69634;DHT22;56860;51.144;16.954;2023-12-22T03:39:57;1.5;44.6
69634;DHT22;56860;51.144;16.954;2023-12-22T03:40:57;1.5;44.9
69634;DHT22;56860;51.144;16.954;2023-12-22T03:41:57;1.4;45.1
69634;DHT22;56860;51.144;16.954;2023-12-22T03:42:57;1.4;45.2
69634;DHT22;56860;51.144;16.954;2023-12-22T03:43:57;1.4;45.4
69634;DHT22;56860;51.144;16.954;2023-12-22T03:44:57;1.5;45.6
69634;DHT22;56860;51.144;16.954;2023-12-22T03:45:57;1.4;45.7
69634;DHT22;56860;51.144;16.954;2023-12-22T03:46:57;1.5;45.6
69634;DHT22;56860;51.144;16.954;2023-12-22T03:47:57;1.5;45.9
69634;DHT22;56860;51.144;16.954;2023-12-22T03:48:57;1.5;45.8
69634;DHT22;56860;51.144;16.954;2023-12-22T03:49:57;1.5;45.5
69634;DHT22;56860;51.144;16.954;2023-12-22T03:50:57;1.5;45.3
69634;DHT22;56860;51.144;16.954;2023-12-22T03:51:57;1.5;45.4
69634;DHT22;56860;51.144;16.954;2023-12-22T03:52:57;1.5;45.3
69634;DHT22;56860;51.144;16.954;2023-12-22T03:53:57;1.5;45.0
69634;DHT22;56860;51.144;16.954;2023-12-22T03:54:57;1.5;45.1
69634;DHT22;56860;51.144;16.954;2023-12-22T03:55:57;1.5;44.9
69634;DHT22;56860;51.144;16.954;2023-12-22T03:56:57;1.6;45.1
69634;DHT22;56860;51.144;16.954;2023-12-22T03:57:57;1.6;44.9
69634;DHT22;56860;51.144;16.954;2023-12-22T03:58:57;1.6;44.8
69634;DHT22;56860;51.144;16.954;2023-12-22T03:59:57;1.6;44.6
69634;DHT22;56860;51.144;16.954;2023-12-22T04:00:57;1.6;44.7
69634;DHT22;56860;51.144;16.954;2023-12-22T04:01:57;1.7;44.7
69634;DHT22;56860;51.144;16.954;2023-12-22T04:02:57;1.7;44.5
69634;DHT22;56860;51.144;16.954;2023-12-22T04:03:57;1.8;44.6
69634;DHT22;56860;51.144;16.954;2023-12-22T04:04:57;1.8;44.4
69634;DHT22;56860;51.144;16.954;2023-12-22T04:05:57;1.9;43.9
69634;DHT22;56860;51.144;16.954;2023-12-22T04:06:57;1.9;43.7
69634;DHT22;56860;51.144;16.954;2023-12-22T04:07:57;2.0;43.4
69634;DHT22;56860;51.144;16.954;2023-12-22T04:08:57;2.0;43.3
69634;DHT22;56860;51.144;16.954;2023-12-22T04:09:57;2.0;43.5
69634;DHT22;56860;51.144;16.954;2023-12-22T04:10:57;2.0;43.5
69634;DHT22;56860;51.144;16.954;2023-12-22T04:11:57;2.0;43.4
69634;DHT22;56860;51.144;16.954;2023-12-22T04:12:57;1.9;43.2
69634;DHT22;56860;51.144;16.954;2023-12-22T04:13:57;1.9;43.0
69634;DHT22;56860;51.144;16.954;2023-12-22T04:14:57;1.9;42.7
69634;DHT22;56860;51.144;16.954;2023-12-22T04:15:57;1.9;43.0
69634;DHT22;56860;51.144;16.954;2023-12-22T04:16:57;1.9;43.3
69634;DHT22;56860;51.144;16.954;2023-12-22T04:17:57;1.8;43.4
69634;DHT22;56860;51.144;16.954;2023-12-22T04:18:57;1.9;43.2
69634;DHT22;56860;51.144;16.954;2023-12-22T04:19:57;1.9;43.1
69634;DHT22;56860;51.144;16.954;2023-12-22T04:20:57;1.9;43.1
69634;DHT22;56860;51.144;16.954;2023-12-22T04:21:57;2.0;43.1
69634;DHT22;56860;51.144;16.954;2023-12-22T04:22:57;2.0;42.5
69634;DHT22;56860;51.144;16.954;2023-12-22T04:23:57;2.1;42.4
69634;DHT22;56860;51.144;16.954;2023-12-22T04:24:57;2.1;42.4
69634;DHT22;56860;51.144;16.954;2023-12-22T04:25:57;2.1;41.7
69634;DHT22;56860;51.144;16.954;2023-12-22T04:26:57;2.1;41.7
69634;DHT22;56860;51.144;16.954;2023-12-22T04:27:57;2.0;41.7
69634;DHT22;56860;51.144;16.954;2023-12-22T04:28:57;2.0;41.1
69634;DHT22;56860;51.144;16.954;2023-12-22T04:29:57;2.0;41.4
69634;DHT22;56860;51.144;16.954;2023-12-22T04:30:57;2.0;41.8
69634;DHT22;56860;51.144;16.954;2023-12-22T04:31:57;2.0;41.6
69634;DHT22;56860;51.144;16.954;2023-12-22T04:32:57;2.0;41.1
69634;DHT22;56860;51.144;16.954;2023-12-22T04:33:57;2.0;40.9
69634;DHT22;56860;51.144;16.954;2023-12-22T04:34:57;2.0;41.0
69634;DHT22;56860;51.144;16.954;2023-12-22T04:35:57;2.0;41.0
69634;DHT22;56860;51.144;16.954;2023-12-22T04:36:57;2.0;40.9
69634;DHT22;56860;51.144;16.954;2023-12-22T04:37:57;2.0;40.6
69634;DHT22;56860;51.144;16.954;2023-12-22T04:38:57;2.0;40.0
69634;DHT22;56860;51.144;16.954;2023-12-22T04:39:57;2.1;40.1
69634;DHT22;56860;51.144;16.954;2023-12-22T04:40:57;2.1;40.2
69634;DHT22;56860;51.144;16.954;2023-12-22T04:41:57;2.1;39.8
69634;DHT22;56860;51.144;16.954;2023-12-22T04:42:57;2.1;40.0
69634;DHT22;56860;51.144;16.954;2023-12-22T04:43:57;2.1;39.6
69634;DHT22;56860;51.144;16.954;2023-12-22T04:44:57;2.1;38.1
69634;DHT22;56860;51.144;16.954;2023-12-22T04:45:57;2.1;38.6
69634;DHT22;56860;51.144;16.954;2023-12-22T04:46:57;2.1;38.4
69634;DHT22;56860;51.144;16.954;2023-12-22T04:47:57;2.1;38.3
69634;DHT22;56860;51.144;16.954;2023-12-22T04:48:57;2.2;38.4
69634;DHT22;56860;51.144;16.954;2023-12-22T04:49:57;2.2;38.3
69634;DHT22;56860;51.144;16.954;2023-12-22T04:50:57;2.2;38.4
69634;DHT22;56860;51.144;16.954;2023-12-22T04:51:57;2.3;38.3
69634;DHT22;56860;51.144;16.954;2023-12-22T04:52:57;2.2;38.0
69634;DHT22;56860;51.144;16.954;2023-12-22T04:53:57;2.2;38.1
69634;DHT22;56860;51.144;16.954;2023-12-22T04:54:57;2.2;38.0
69634;DHT22;56860;51.144;16.954;2023-12-22T04:55:57;2.2;38.2
69634;DHT22;56860;51.144;16.954;2023-12-22T04:56:57;2.2;38.1
69634;DHT22;56860;51.144;16.954;2023-12-22T04:57:57;2.3;38.4
69634;DHT22;56860;51.144;16.954;2023-12-22T04:58:57;2.2;38.3
69634;DHT22;56860;51.144;16.954;2023-12-22T04:59:57;2.2;38.1
69634;DHT22;56860;51.144;16.954;2023-12-22T05:00:58;2.3;37.9
69634;DHT22;56860;51.144;16.954;2023-12-22T05:01:57;2.2;38.0
69634;DHT22;56860;51.144;16.954;2023-12-22T05:02:57;2.2;37.9
69634;DHT22;56860;51.144;16.954;2023-12-22T05:03:57;2.3;37.6
69634;DHT22;56860;51.144;16.954;2023-12-22T05:04:57;2.2;37.6
69634;DHT22;56860;51.144;16.954;2023-12-22T05:05:57;2.2;37.6
69634;DHT22;56860;51.144;16.954;2023-12-22T05:06:57;2.2;37.7
69634;DHT22;56860;51.144;16.954;2023-12-22T05:07:58;2.2;37.6
69634;DHT22;56860;51.144;16.954;2023-12-22T05:08:57;2.2;37.6
69634;DHT22;56860;51.144;16.954;2023-12-22T05:09:57;2.2;37.6
69634;DHT22;56860;51.144;16.954;2023-12-22T05:10:57;2.2;37.9
69634;DHT22;56860;51.144;16.954;2023-12-22T05:11:57;2.2;38.2
69634;DHT22;56860;51.144;16.954;2023-12-22T05:12:57;2.2;38.4
69634;DHT22;56860;51.144;16.954;2023-12-22T05:13:57;2.2;37.9
69634;DHT22;56860;51.144;16.954;2023-12-22T05:14:57;2.2;38.1
69634;DHT22;56860;51.144;16.954;2023-12-22T05:15:57;2.2;38.1
69634;DHT22;56860;51.144;16.954;2023-12-22T05:16:57;2.2;38.3
69634;DHT22;56860;51.144;16.954;2023-12-22T05:17:57;2.3;38.1
69634;DHT22;56860;51.144;16.954;2023-12-22T05:18:57;2.3;38.2
69634;DHT22;56860;51.144;16.954;2023-12-22T05:19:57;2.3;38.1
69634;DHT22;56860;51.144;16.954;2023-12-22T05:20:57;2.3;38.2
69634;DHT22;56860;51.144;16.954;2023-12-22T05:21:57;2.3;38.0
69634;DHT22;56860;51.144;16.954;2023-12-22T05:22:57;2.2;38.0
69634;DHT22;56860;51.144;16.954;2023-12-22T05:23:57;2.2;38.0
69634;DHT22;56860;51.144;16.954;2023-12-22T05:24:57;2.2;38.5
69634;DHT22;56860;51.144;16.954;2023-12-22T05:25:57;2.2;38.6
69634;DHT22;56860;51.144;16.954;2023-12-22T05:26:57;2.2;38.5
69634;DHT22;56860;51.144;16.954;2023-12-22T05:27:57;2.3;38.4
69634;DHT22;56860;51.144;16.954;2023-12-22T05:28:57;2.3;38.6
69634;DHT22;56860;51.144;16.954;2023-12-22T05:29:57;2.3;38.6
69634;DHT22;56860;51.144;16.954;2023-12-22T05:30:57;2.3;38.2
69634;DHT22;56860;51.144;16.954;2023-12-22T05:31:57;2.2;38.3
69634;DHT22;56860;51.144;16.954;2023-12-22T05:32:57;2.2;38.1
69634;DHT22;56860;51.144;16.954;2023-12-22T05:33:57;2.2;38.5
69634;DHT22;56860;51.144;16.954;2023-12-22T05:34:57;2.2;38.7
69634;DHT22;56860;51.144;16.954;2023-12-22T05:35:57;2.3;38.6
69634;DHT22;56860;51.144;16.954;2023-12-22T05:36:57;2.3;38.6
69634;DHT22;56860;51.144;16.954;2023-12-22T05:37:57;2.2;38.4
69634;DHT22;56860;51.144;16.954;2023-12-22T05:38:57;2.2;39.1
69634;DHT22;56860;51.144;16.954;2023-12-22T05:39:57;2.2;39.1
69634;DHT22;56860;51.144;16.954;2023-12-22T05:40:57;2.2;39.1
69634;DHT22;56860;51.144;16.954;2023-12-22T05:41:57;2.2;39.3
69634;DHT22;56860;51.144;16.954;2023-12-22T05:42:57;2.1;39.4
69634;DHT22;56860;51.144;16.954;2023-12-22T05:43:57;2.1;39.4
69634;DHT22;56860;51.144;16.954;2023-12-22T05:44:57;2.1;39.4
69634;DHT22;56860;51.144;16.954;2023-12-22T05:45:57;2.1;39.4
69634;DHT22;56860;51.144;16.954;2023-12-22T05:46:57;2.2;39.7
69634;DHT22;56860;51.144;16.954;2023-12-22T05:47:57;2.1;39.4
69634;DHT22;56860;51.144;16.954;2023-12-22T05:48:57;2.2;39.5
69634;DHT22;56860;51.144;16.954;2023-12-22T05:49:58;2.2;39.5
69634;DHT22;56860;51.144;16.954;2023-12-22T05:50:57;2.2;39.5
69634;DHT22;56860;51.144;16.954;2023-12-22T05:51:57;2.2;39.7
69634;DHT22;56860;51.144;16.954;2023-12-22T05:52:57;2.2;39.5
69634;DHT22;56860;51.144;16.954;2023-12-22T05:53:57;2.1;39.2
69634;DHT22;56860;51.144;16.954;2023-12-22T05:54:57;2.1;39.2
69634;DHT22;56860;51.144;16.954;2023-12-22T05:55:57;2.2;39.5
69634;DHT22;56860;51.144;16.954;2023-12-22T05:56:57;2.2;39.4
69634;DHT22;56860;51.144;16.954;2023-12-22T05:57:57;2.2;39.0
69634;DHT22;56860;51.144;16.954;2023-12-22T05:58:57;2.2;39.0
69634;DHT22;56860;51.144;16.954;2023-12-22T05:59:57;2.3;39.2
69634;DHT22;56860;51.144;16.954;2023-12-22T06:00:57;2.3;39.2
69634;DHT22;56860;51.144;16.954;2023-12-22T06:01:57;2.3;39.0
69634;DHT22;56860;51.144;16.954;2023-12-22T06:02:57;2.4;38.9
69634;DHT22;56860;51.144;16.954;2023-12-22T06:03:57;2.3;38.7
69634;DHT22;56860;51.144;16.954;2023-12-22T06:04:57;2.3;39.1
69634;DHT22;56860;51.144;16.954;2023-12-22T06:05:57;2.3;39.2
69634;DHT22;56860;51.144;16.954;2023-12-22T06:06:57;2.3;39.2
69634;DHT22;56860;51.144;16.954;2023-12-22T06:07:57;2.3;39.4
69634;DHT22;56860;51.144;16.954;2023-12-22T06:08:57;2.3;39.5
69634;DHT22;56860;51.144;16.954;2023-12-22T06:09:57;2.3;39.5
69634;DHT22;56860;51.144;16.954;2023-12-22T06:10:57;2.3;39.5
69634;DHT22;56860;51.144;16.954;2023-12-22T06:11:57;2.3;39.6
69634;DHT22;56860;51.144;16.954;2023-12-22T06:12:57;2.2;39.7
69634;DHT22;56860;51.144;16.954;2023-12-22T06:13:57;2.2;39.5
69634;DHT22;56860;51.144;16.954;2023-12-22T06:14:57;2.2;40.0
69634;DHT22;56860;51.144;16.954;2023-12-22T06:15:57;2.2;40.3
69634;DHT22;56860;51.144;16.954;2023-12-22T06:16:57;2.2;40.5
69634;DHT22;56860;51.144;16.954;2023-12-22T06:17:57;2.2;40.3
69634;DHT22;56860;51.144;16.954;2023-12-22T06:18:57;2.2;40.5
69634;DHT22;56860;51.144;16.954;2023-12-22T06:19:57;2.2;40.6
69634;DHT22;56860;51.144;16.954;2023-12-22T06:20:57;2.1;40.7
69634;DHT22;56860;51.144;16.954;2023-12-22T06:21:57;2.1;40.6
69634;DHT22;56860;51.144;16.954;2023-12-22T06:22:57;2.0;41.1
69634;DHT22;56860;51.144;16.954;2023-12-22T06:23:57;2.0;41.6
69634;DHT22;56860;51.144;16.954;2023-12-22T06:24:57;2.0;41.7
69634;DHT22;56860;51.144;16.954;2023-12-22T06:25:57;2.0;41.5
69634;DHT22;56860;51.144;16.954;2023-12-22T06:26:57;2.0;41.7
69634;DHT22;56860;51.144;16.954;2023-12-22T06:27:57;2.0;41.5
69634;DHT22;56860;51.144;16.954;2023-12-22T06:28:57;2.0;42.0
69634;DHT22;56860;51.144;16.954;2023-12-22T06:29:58;2.0;42.2
69634;DHT22;56860;51.144;16.954;2023-12-22T06:30:57;2.0;42.1
69634;DHT22;56860;51.144;16.954;2023-12-22T06:31:57;1.9;42.4
69634;DHT22;56860;51.144;16.954;2023-12-22T06:32:57;1.9;42.6
69634;DHT22;56860;51.144;16.954;2023-12-22T06:33:57;1.9;42.6